Time;durP1;ratioP1;P1;durP2;ratioP2;P2;SDS_P1;SDS_P2;PMS_P1;PMS_P2;Temp;Humidity;BMP_temperature;BMP_pressure;BME280_temperature;BME280_humidity;BME280_pressure;Samples;Min_cycle;Max_cycle;Signal;HPM_P1;HPM_P2
2022/12/22 03:25:55;;;;;;;71.93;41.63;;;;;;;5.00;59.82;94790.91;5050655;28;20250;-44
2022/12/22 03:28:24;;;;;;;67.07;38.47;;;;;;;4.99;59.95;94779.16;5050707;28;20234;-44
2022/12/22 03:30:56;;;;;;;75.40;42.33;;;;;;;4.99;60.02;94784.22;5050249;28;20990;-44
2022/12/22 03:33:25;;;;;;;69.73;42.37;;;;;;;4.94;60.07;94778.66;5050604;28;20223;-44
2022/12/22 03:35:51;;;;;;;76.67;43.10;;;;;;;4.98;59.86;94779.25;5050260;28;20625;-44
2022/12/22 03:38:18;;;;;;;73.30;42.83;;;;;;;4.97;59.99;94786.06;5050853;28;20248;-44
2022/12/22 03:40:45;;;;;;;72.03;42.63;;;;;;;4.98;59.97;94787.69;5049953;28;20540;-44
2022/12/22 03:51:31;;;;;;;75.43;42.03;;;;;;;4.95;59.90;94792.13;5027299;28;20536;-44
2022/12/22 03:53:58;;;;;;;86.33;42.83;;;;;;;4.95;59.93;94792.13;5027954;28;20184;-43
2022/12/22 03:56:25;;;;;;;79.17;42.73;;;;;;;4.95;60.09;94792.94;5027229;28;20671;-44
2022/12/22 03:58:52;;;;;;;81.53;45.03;;;;;;;4.95;60.00;94789.59;5027635;28;20703;-43
2022/12/22 04:01:19;;;;;;;73.40;41.07;;;;;;;4.91;60.04;94778.84;5027565;28;20256;-43
2022/12/22 04:03:46;;;;;;;73.53;41.27;;;;;;;4.72;60.09;94750.59;5027641;28;20593;-43
2022/12/22 04:06:14;;;;;;;67.53;40.20;;;;;;;4.91;59.93;94778.84;5027452;28;20210;-46
2022/12/22 04:08:40;;;;;;;72.97;42.77;;;;;;;4.94;60.02;94787.97;5027710;28;20191;-45
2022/12/22 04:13:52;;;;;;;70.43;39.13;;;;;;;4.92;60.02;94789.78;5027407;28;20195;-43
2022/12/22 04:16:18;;;;;;;69.53;39.67;;;;;;;4.91;60.11;94788.97;5027235;28;20184;-43
2022/12/22 04:18:45;;;;;;;70.73;40.43;;;;;;;4.91;60.29;94783.09;5027291;28;20196;-44
2022/12/22 04:21:12;;;;;;;76.00;41.93;;;;;;;4.90;60.13;94779.75;5026810;28;20196;-43
2022/12/22 04:23:40;;;;;;;70.73;41.17;;;;;;;4.90;60.09;94781.50;5029536;28;20238;-45
2022/12/22 04:26:07;;;;;;;73.23;40.27;;;;;;;4.74;60.08;94756.34;5049064;28;20210;-43
2022/12/22 04:28:34;;;;;;;69.13;38.23;;;;;;;4.90;59.94;94784.84;5048947;28;20289;-43
2022/12/22 04:31:01;;;;;;;70.27;38.63;;;;;;;4.90;60.07;94777.22;5048774;28;20234;-43
2022/12/22 04:33:27;;;;;;;62.87;37.57;;;;;;;4.91;60.08;94778.03;5049474;28;20252;-43
2022/12/22 04:35:54;;;;;;;76.60;40.23;;;;;;;4.89;60.08;94783.22;5049367;28;20257;-44
2022/12/22 04:38:21;;;;;;;61.07;36.63;;;;;;;4.91;59.96;94780.56;5049389;28;20202;-43
2022/12/22 04:40:49;;;;;;;63.40;36.37;;;;;;;4.89;60.10;94785.75;5049221;28;20202;-43
2022/12/22 04:43:16;;;;;;;65.47;37.03;;;;;;;4.88;60.18;94788.38;5048959;28;20565;-43
2022/12/22 04:45:44;;;;;;;61.50;34.83;;;;;;;4.90;60.12;94779.75;5049194;28;20245;-43
2022/12/22 04:48:10;;;;;;;59.43;35.53;;;;;;;4.90;60.18;94781.50;5048875;28;20257;-43
2022/12/22 04:50:37;;;;;;;59.80;34.73;;;;;;;4.78;60.15;94761.09;5048310;28;21047;-44
2022/12/22 04:53:04;;;;;;;57.60;33.00;;;;;;;4.87;60.15;94782.50;5048961;28;20213;-43
2022/12/22 04:55:31;;;;;;;58.33;33.13;;;;;;;4.91;60.19;94780.56;5049362;28;20266;-43
2022/12/22 04:57:59;;;;;;;57.07;32.57;;;;;;;4.91;60.26;94780.56;5048792;28;20195;-43
2022/12/22 05:00:26;;;;;;;57.30;32.83;;;;;;;4.90;60.17;94781.50;5049346;28;20183;-43
2022/12/22 05:02:53;;;;;;;56.80;32.27;;;;;;;4.90;60.18;94776.44;5049086;28;20179;-47
2022/12/22 05:05:19;;;;;;;54.47;31.80;;;;;;;4.90;60.16;94773.88;5049533;28;20274;-44
2022/12/22 05:07:46;;;;;;;53.37;30.20;;;;;;;4.85;60.13;94768.31;5048692;28;20191;-42
2022/12/22 05:10:13;;;;;;;51.00;29.80;;;;;;;4.36;60.13;94691.31;5048142;28;20639;-44
2022/12/22 05:12:55;;;;;;;54.97;29.87;;;;;;;4.89;60.30;94782.41;5048933;28;20709;-47
2022/12/22 05:15:25;;;;;;;46.53;28.47;;;;;;;4.88;60.07;94781.59;5049061;28;20248;-43
2022/12/22 05:17:52;;;;;;;48.57;29.10;;;;;;;4.88;60.20;94786.66;5048566;28;20854;-44
2022/12/22 05:20:19;;;;;;;52.83;29.20;;;;;;;4.86;60.27;94785.94;5048886;28;20183;-43
2022/12/22 05:22:47;;;;;;;46.93;28.03;;;;;;;4.81;60.30;94777.84;5048934;28;20190;-44
2022/12/22 05:25:15;;;;;;;47.17;27.83;;;;;;;4.75;60.20;94779.06;5048308;28;20270;-43
2022/12/22 05:27:42;;;;;;;47.83;29.60;;;;;;;4.89;60.16;94798.41;5048421;28;20191;-44
2022/12/22 05:30:10;;;;;;;48.47;28.83;;;;;;;4.89;60.17;94797.63;5047173;28;20206;-45
2022/12/22 05:32:39;;;;;;;44.13;27.33;;;;;;;4.86;60.26;94791.00;5048179;28;20186;-45
2022/12/22 05:35:07;;;;;;;47.60;27.20;;;;;;;4.88;60.36;94791.75;5044677;28;20205;-44
2022/12/22 05:37:34;;;;;;;42.53;27.27;;;;;;;4.86;60.34;94788.47;5048999;28;20194;-45
2022/12/22 05:40:01;;;;;;;44.60;26.03;;;;;;;4.89;60.23;94795.88;5047717;28;20194;-43
2022/12/22 05:42:37;;;;;;;40.83;26.07;;;;;;;4.75;60.25;94771.47;5048393;28;20647;-46
2022/12/22 05:45:06;;;;;;;43.13;25.87;;;;;;;4.90;60.22;94794.16;5047746;28;20186;-45
2022/12/22 05:47:33;;;;;;;40.60;24.57;;;;;;;4.91;60.32;94788.97;5048322;28;20240;-45
2022/12/22 05:50:02;;;;;;;22.40;15.67;;;;;;;5.41;100.00;94776.38;5048043;28;20764;-43
2022/12/22 05:52:28;;;;;;;28.93;15.93;;;;;;;6.35;100.00;94775.75;5048911;28;20548;-45
2022/12/22 05:54:55;;;;;;;24.43;16.67;;;;;;;7.25;100.00;94779.28;5047904;28;20252;-44
2022/12/22 05:57:23;;;;;;;25.50;15.30;;;;;;;8.10;100.00;94776.16;5048263;28;20213;-45
2022/12/22 05:59:49;;;;;;;26.17;14.87;;;;;;;8.86;100.00;94787.09;5047925;28;20655;-44
2022/12/22 06:02:16;;;;;;;22.10;16.13;;;;;;;9.20;100.00;94778.31;5050917;28;20187;-44
2022/12/22 06:04:43;;;;;;;23.80;16.87;;;;;;;9.38;99.17;94782.81;5052101;28;20195;-45
2022/12/22 06:07:12;;;;;;;28.00;16.87;;;;;;;9.30;94.79;94786.00;5052013;28;20608;-44
2022/12/22 06:09:38;;;;;;;22.73;16.47;;;;;;;9.20;89.61;94783.41;5051996;28;20643;-45
2022/12/22 06:12:06;;;;;;;22.37;15.37;;;;;;;9.09;84.54;94796.22;5052121;28;20222;-44
2022/12/22 06:14:33;;;;;;;22.30;15.67;;;;;;;8.91;80.64;94777.34;5051748;28;20564;-44
2022/12/22 06:17:00;;;;;;;25.93;16.37;;;;;;;8.78;77.77;94790.28;5051750;28;20617;-45
2022/12/22 06:19:27;;;;;;;27.53;17.63;;;;;;;8.66;75.79;94793.81;5051805;28;20202;-43
2022/12/22 06:21:54;;;;;;;27.63;16.60;;;;;;;8.31;74.18;94771.91;5048730;28;20198;-44
2022/12/22 06:24:22;;;;;;;28.87;18.27;;;;;;;8.41;73.08;94800.84;5042635;28;20269;-43
2022/12/22 06:26:49;;;;;;;28.50;18.27;;;;;;;8.35;72.71;94800.53;5044591;28;20203;-44
2022/12/22 06:29:15;;;;;;;36.13;19.23;;;;;;;8.36;72.31;94802.13;5050620;28;20235;-44
2022/12/22 06:31:42;;;;;;;32.20;18.43;;;;;;;8.43;71.91;94804.09;5046358;28;20211;-44
2022/12/22 06:34:09;;;;;;;39.40;19.67;;;;;;;8.52;71.03;94808.47;5051527;28;20218;-44
2022/12/22 06:36:37;;;;;;;31.77;19.73;;;;;;;8.48;70.11;94778.25;5050941;28;20297;-43
2022/12/22 06:39:04;;;;;;;33.33;20.40;;;;;;;8.80;69.73;94809.59;5051170;28;20202;-43
2022/12/22 06:44:17;;;;;;;32.37;20.73;;;;;;;9.17;69.14;94808.34;5051024;28;20617;-43
2022/12/22 06:46:44;;;;;;;36.27;22.40;;;;;;;9.41;68.79;94808.06;5050969;28;20198;-43
2022/12/22 06:49:11;;;;;;;36.10;21.83;;;;;;;9.63;68.40;94814.72;5051122;28;20191;-43
2022/12/22 06:51:37;;;;;;;37.87;24.10;;;;;;;9.90;68.19;94821.81;5050792;28;20218;-43
2022/12/22 06:54:04;;;;;;;39.00;22.90;;;;;;;10.16;67.88;94811.94;5050884;28;20193;-44
2022/12/22 06:56:33;;;;;;;42.43;23.83;;;;;;;10.42;67.62;94810.50;5050629;28;20186;-43
2022/12/22 06:58:59;;;;;;;39.20;25.73;;;;;;;10.65;67.34;94805.94;5050517;28;20272;-44
2022/12/22 07:01:26;;;;;;;38.93;25.57;;;;;;;11.02;67.26;94816.28;5051285;28;20199;-44
2022/12/22 07:03:53;;;;;;;41.73;25.77;;;;;;;11.34;66.78;94820.22;5050728;28;20199;-43
2022/12/22 07:06:20;;;;;;;42.57;27.73;;;;;;;11.65;66.07;94818.22;5050786;28;20253;-43
2022/12/22 07:08:48;;;;;;;44.97;27.20;;;;;;;11.78;65.37;94792.28;5050648;28;20183;-43
2022/12/22 07:11:15;;;;;;;42.20;28.10;;;;;;;12.26;64.42;94819.44;5050555;28;20834;-44
2022/12/22 07:13:43;;;;;;;43.67;29.53;;;;;;;12.54;63.78;94815.06;5050308;28;20203;-44
2022/12/22 07:16:11;;;;;;;42.60;28.37;;;;;;;12.73;62.86;94816.66;5050945;28;20249;-43
2022/12/22 07:18:40;;;;;;;52.23;32.57;;;;;;;12.97;62.34;94809.19;5050918;28;20614;-44
2022/12/22 07:21:09;;;;;;;43.97;29.17;;;;;;;12.95;61.46;94780.28;5042963;28;20187;-43
2022/12/22 07:23:36;;;;;;;48.63;30.73;;;;;;;13.31;60.81;94813.63;5050553;28;20194;-44
2022/12/22 07:26:03;;;;;;;53.40;32.70;;;;;;;13.47;60.00;94818.03;5050655;28;20199;-45
2022/12/22 07:28:32;;;;;;;48.43;31.47;;;;;;;13.61;59.44;94811.53;5049456;28;20226;-44
2022/12/22 07:31:00;;;;;;;46.37;29.83;;;;;;;13.77;58.79;94809.00;5049576;28;20206;-44
2022/12/22 07:33:27;;;;;;;48.33;32.77;;;;;;;13.97;57.95;94812.16;5049709;28;20220;-46
2022/12/22 07:36:06;;;;;;;51.50;31.20;;;;;;;14.09;57.46;94810.91;5049452;28;20187;-46
2022/12/22 07:38:36;;;;;;;58.17;35.10;;;;;;;14.18;56.99;94811.75;5048846;28;20651;-46
2022/12/22 07:42:43;;;;;;;51.50;34.17;;;;;;;14.27;56.56;94815.94;5049673;28;20203;-45
2022/12/22 07:43:49;;;;;;;62.07;36.77;;;;;;;14.28;56.25;94817.53;5048941;28;20252;-44
2022/12/22 07:46:17;;;;;;;56.03;36.00;;;;;;;14.23;56.31;94824.94;5048433;28;20198;-45
2022/12/22 07:51:32;;;;;;;56.33;37.07;;;;;;;14.02;55.95;94822.78;5046844;28;20218;-43
2022/12/22 07:53:59;;;;;;;56.57;37.33;;;;;;;13.90;55.95;94824.81;5047722;28;20598;-44
2022/12/22 07:56:26;;;;;;;61.17;37.83;;;;;;;13.75;55.63;94816.88;5049166;28;20497;-43
2022/12/22 07:58:53;;;;;;;54.13;37.50;;;;;;;13.65;55.58;94816.22;5048535;28;20199;-43
2022/12/22 08:01:21;;;;;;;68.13;40.10;;;;;;;13.52;55.25;94808.13;5048670;28;20175;-43
2022/12/22 08:03:47;;;;;;;66.30;40.13;;;;;;;13.46;55.30;94803.56;5049090;28;20720;-44
2022/12/22 08:06:15;;;;;;;64.97;38.17;;;;;;;13.54;54.70;94807.00;5049215;28;20186;-43
2022/12/22 08:08:41;;;;;;;65.37;39.70;;;;;;;13.58;54.37;94804.91;5048734;28;20643;-44
2022/12/22 08:11:08;;;;;;;63.93;39.13;;;;;;;13.49;54.15;94808.41;5049537;28;20615;-43
2022/12/22 08:13:35;;;;;;;62.50;38.60;;;;;;;13.38;53.87;94803.53;5048819;28;20198;-43
2022/12/22 08:16:03;;;;;;;69.67;40.87;;;;;;;13.28;53.93;94808.78;5048278;28;20222;-43
2022/12/22 08:18:33;;;;;;;65.77;42.13;;;;;;;13.21;53.76;94789.75;5049405;28;20195;-43
2022/12/22 08:21:00;;;;;;;65.77;42.20;;;;;;;13.34;53.63;94799.63;5047889;28;20210;-43
2022/12/22 08:23:26;;;;;;;68.63;41.57;;;;;;;13.27;53.60;94800.25;5048111;28;20716;-43
2022/12/22 08:25:58;;;;;;;63.57;41.27;;;;;;;13.18;53.75;94803.72;5048453;28;20601;-43
2022/12/22 08:28:26;;;;;;;61.00;39.10;;;;;;;13.13;53.50;94800.78;5048209;28;20218;-43
2022/12/22 08:30:53;;;;;;;65.27;40.07;;;;;;;13.16;53.32;94805.59;5047901;28;20214;-44
2022/12/22 08:33:20;;;;;;;64.53;41.40;;;;;;;13.22;52.87;94806.78;5049113;28;20195;-43
2022/12/22 08:35:48;;;;;;;68.47;42.10;;;;;;;13.26;52.31;94803.00;5048552;28;20187;-43
2022/12/22 08:38:15;;;;;;;69.23;42.80;;;;;;;13.27;52.06;94807.97;5048397;28;20206;-43
2022/12/22 08:40:43;;;;;;;62.93;42.93;;;;;;;13.14;52.15;94802.41;5048452;28;20191;-43
2022/12/22 08:43:11;;;;;;;70.43;44.50;;;;;;;12.99;52.16;94793.59;5048360;28;20277;-43
2022/12/22 08:45:38;;;;;;;67.03;43.17;;;;;;;12.86;52.18;94801.69;5047455;28;20191;-44
2022/12/22 08:48:05;;;;;;;69.33;43.80;;;;;;;12.72;52.15;94795.34;5048143;28;20267;-44
2022/12/22 08:50:32;;;;;;;70.90;43.40;;;;;;;12.62;52.43;94786.94;5048416;28;20275;-43
2022/12/22 08:53:03;;;;;;;60.67;42.07;;;;;;;12.48;52.63;94785.69;5048380;28;20214;-44
2022/12/22 08:55:30;;;;;;;69.03;45.13;;;;;;;12.44;52.60;94783.56;5047296;28;20266;-43
2022/12/22 08:57:57;;;;;;;64.93;44.10;;;;;;;12.37;52.71;94795.34;5048743;28;20191;-43
2022/12/22 09:00:24;;;;;;;71.30;45.97;;;;;;;12.29;52.78;94785.81;5047111;28;20252;-43
2022/12/22 09:02:51;;;;;;;82.00;47.93;;;;;;;12.09;52.75;94764.66;5048020;28;20592;-42
2022/12/22 09:05:18;;;;;;;66.93;44.97;;;;;;;12.17;52.60;94774.97;5048295;28;20190;-42
2022/12/22 09:07:46;;;;;;;69.77;43.97;;;;;;;12.12;52.63;94758.41;5048193;28;20572;-43
2022/12/22 09:10:14;;;;;;;77.00;46.87;;;;;;;12.09;52.66;94764.66;5048330;28;20199;-43
2022/12/22 09:12:41;;;;;;;67.93;42.90;;;;;;;12.06;52.57;94764.94;5047990;28;20223;-43
2022/12/22 09:15:08;;;;;;;60.40;42.60;;;;;;;11.92;52.86;94745.75;5047869;28;20252;-43
2022/12/22 09:17:36;;;;;;;71.40;43.30;;;;;;;11.99;52.65;94756.19;5048046;28;20191;-43
2022/12/22 09:20:04;;;;;;;68.03;43.73;;;;;;;11.97;52.84;94753.00;5048055;28;20199;-42
2022/12/22 09:22:31;;;;;;;72.20;45.43;;;;;;;11.92;52.69;94752.63;5048270;28;20274;-42
2022/12/22 09:24:58;;;;;;;70.40;44.57;;;;;;;11.91;52.86;94745.88;5047637;28;20257;-42
2022/12/22 09:27:26;;;;;;;70.13;43.50;;;;;;;11.89;52.57;94745.22;5048101;28;20195;-43
2022/12/22 09:29:53;;;;;;;65.47;42.57;;;;;;;11.68;52.60;94720.63;5048628;28;20198;-43
2022/12/22 09:32:20;;;;;;;70.80;45.93;;;;;;;11.85;52.64;94747.25;5048093;28;20207;-43
2022/12/22 09:34:47;;;;;;;71.90;43.10;;;;;;;11.80;52.67;94746.84;5049140;28;20233;-42
2022/12/22 09:37:16;;;;;;;67.47;43.20;;;;;;;11.67;52.58;94725.91;5052335;28;20183;-42
2022/12/22 09:39:43;;;;;;;74.43;45.83;;;;;;;11.79;52.54;94750.38;5052501;28;20187;-42
2022/12/22 09:42:14;;;;;;;70.67;42.33;;;;;;;11.77;52.60;94747.94;5052735;28;20203;-42
2022/12/22 09:44:46;;;;;;;62.37;43.70;;;;;;;11.75;52.42;94746.47;5052383;28;20233;-43
2022/12/22 09:47:18;;;;;;;69.63;44.33;;;;;;;11.75;52.59;94746.47;5049533;28;20260;-43
2022/12/22 09:49:45;;;;;;;69.83;43.30;;;;;;;11.72;52.65;94734.75;5051898;28;20190;-43
2022/12/22 09:52:24;;;;;;;68.83;44.57;;;;;;;11.72;52.54;94736.50;5051372;28;20576;-43
2022/12/22 09:54:51;;;;;;;71.70;45.03;;;;;;;11.70;52.54;94739.22;5051753;28;20186;-43
2022/12/22 09:57:17;;;;;;;81.40;44.10;;;;;;;11.70;52.41;94734.09;5051339;28;20195;-43
2022/12/22 09:59:46;;;;;;;69.00;46.57;;;;;;;11.58;52.49;94699.38;5051619;28;20241;-43
2022/12/22 10:02:25;;;;;;;78.97;45.60;;;;;;;11.68;52.39;94705.25;5051000;28;20179;-43
2022/12/22 10:05:15;;;;;;;71.83;45.57;;;;;;;11.71;52.34;94714.41;5049958;28;20604;-43
2022/12/22 10:07:43;;;;;;;73.37;44.77;;;;;;;11.73;52.45;94708.19;5049825;28;20206;-43
2022/12/22 10:10:23;;;;;;;66.83;43.63;;;;;;;11.74;52.42;94701.28;5051436;28;20218;-43
2022/12/22 10:12:50;;;;;;;78.63;47.27;;;;;;;11.76;52.36;94694.28;5048825;28;20280;-44
2022/12/22 10:15:19;;;;;;;72.20;45.57;;;;;;;11.77;52.35;94694.13;5050568;28;20606;-44
2022/12/22 10:17:45;;;;;;;69.53;44.90;;;;;;;11.69;52.13;94668.44;5050796;28;20191;-44
2022/12/22 10:20:25;;;;;;;72.03;45.07;;;;;;;11.86;51.97;94686.56;5051163;28;20199;-44
2022/12/22 10:22:55;;;;;;;62.57;42.67;;;;;;;11.89;52.02;94679.41;5050517;28;20305;-44
2022/12/22 10:25:32;;;;;;;68.47;45.07;;;;;;;11.94;52.03;94676.38;5051194;28;20256;-43
2022/12/22 10:28:01;;;;;;;67.20;44.43;;;;;;;11.98;51.88;94678.50;5049313;28;20669;-44
2022/12/22 10:30:33;;;;;;;68.10;42.00;;;;;;;12.03;51.85;94668.63;5050027;28;20249;-44
2022/12/22 10:33:05;;;;;;;68.27;43.80;;;;;;;12.03;51.71;94663.50;5050857;28;20292;-43
2022/12/22 10:35:48;;;;;;;66.47;44.23;;;;;;;11.96;51.63;94634.31;5050805;28;20195;-44
2022/12/22 10:38:22;;;;;;;74.83;44.13;;;;;;;12.16;51.70;94663.13;5050124;28;20563;-44
2022/12/22 10:40:52;;;;;;;68.80;45.43;;;;;;;12.08;51.52;94641.75;5047957;28;20199;-44
2022/12/22 10:43:21;;;;;;;71.40;44.07;;;;;;;12.23;51.51;94647.97;5050568;28;20198;-45
2022/12/22 10:45:51;;;;;;;64.50;45.77;;;;;;;12.26;51.62;94650.22;5047483;28;20194;-44
2022/12/22 10:48:26;;;;;;;68.27;43.90;;;;;;;12.28;51.44;94649.13;5049936;28;20557;-44
2022/12/22 10:50:53;;;;;;;66.93;43.30;;;;;;;12.29;51.60;94643.03;5048880;28;20198;-42
2022/12/22 10:53:20;;;;;;;73.70;45.00;;;;;;;12.36;51.53;94643.25;5049109;28;20662;-43
2022/12/22 10:55:47;;;;;;;63.20;42.20;;;;;;;12.41;51.33;94642.81;5050120;28;20651;-44
2022/12/22 10:58:20;;;;;;;72.30;45.60;;;;;;;12.08;50.96;94575.09;5048240;28;20199;-44
2022/12/22 11:01:03;;;;;;;64.40;42.60;;;;;;;12.60;50.90;94634.09;5047389;28;20203;-43
2022/12/22 11:03:31;;;;;;;70.17;46.60;;;;;;;12.68;51.12;94634.94;5046745;28;20209;-43
2022/12/22 11:05:59;;;;;;;69.67;45.17;;;;;;;12.75;50.93;94630.03;5047157;28;20199;-43
2022/12/22 11:08:26;;;;;;;65.17;44.33;;;;;;;12.79;50.88;94631.34;5047334;28;20194;-43
2022/12/22 11:10:57;;;;;;;65.90;42.90;;;;;;;12.84;50.73;94620.59;5047460;28;20759;-43
2022/12/22 11:13:39;;;;;;;62.30;41.73;;;;;;;12.87;50.71;94622.88;5047881;28;20799;-43
2022/12/22 11:16:17;;;;;;;69.17;43.30;;;;;;;12.89;50.88;94619.19;5046702;28;20257;-43
2022/12/22 11:18:56;;;;;;;64.93;41.03;;;;;;;12.92;50.59;94621.44;5048235;28;20264;-43
2022/12/22 11:21:30;;;;;;;69.73;44.53;;;;;;;12.93;50.57;94615.34;5049886;28;20186;-44
2022/12/22 11:24:08;;;;;;;68.23;43.27;;;;;;;12.95;50.77;94610.88;5050100;28;20207;-43
2022/12/22 11:26:45;;;;;;;67.50;44.30;;;;;;;12.80;50.56;94584.97;5048294;28;20248;-43
2022/12/22 11:29:25;;;;;;;67.20;43.30;;;;;;;12.96;50.53;94606.56;5049516;28;20364;-44
2022/12/22 11:32:10;;;;;;;63.67;41.83;;;;;;;12.97;50.46;94610.72;5047745;28;20218;-43
2022/12/22 11:34:49;;;;;;;60.43;40.70;;;;;;;13.00;50.46;94602.72;5047995;28;20191;-44
2022/12/22 11:37:29;;;;;;;66.10;42.53;;;;;;;13.01;50.53;94607.69;5049123;28;20195;-44
2022/12/22 11:40:03;;;;;;;62.57;40.93;;;;;;;13.02;50.44;94606.72;5049287;28;20272;-44
2022/12/22 11:42:50;;;;;;;58.97;41.83;;;;;;;13.04;50.44;94596.31;5049566;28;20195;-44
2022/12/22 11:45:37;;;;;;;63.53;43.27;;;;;;;13.03;50.35;94595.50;5049278;28;20191;-45
2022/12/22 11:48:18;;;;;;;59.30;41.73;;;;;;;13.05;50.28;94596.16;5049044;28;20191;-43
2022/12/22 11:50:47;;;;;;;61.17;42.40;;;;;;;13.08;50.33;94597.59;5049544;28;20256;-42
2022/12/22 11:53:34;;;;;;;71.63;40.77;;;;;;;13.10;50.20;94593.13;5049622;28;20292;-42
2022/12/22 11:56:11;;;;;;;66.33;41.00;;;;;;;13.12;50.27;94596.31;5049119;28;20198;-45
2022/12/22 11:59:00;;;;;;;66.37;40.73;;;;;;;13.15;50.17;94590.09;5048621;28;20194;-42
2022/12/22 12:01:45;;;;;;;68.43;42.67;;;;;;;13.16;50.00;94583.97;5048632;28;20195;-42
2022/12/22 12:04:47;;;;;;;61.23;41.37;;;;;;;12.78;50.13;94529.66;5049113;28;20195;-42
2022/12/22 12:07:26;;;;;;;60.00;41.47;;;;;;;13.16;50.12;94589.91;5005732;28;20202;-42
2022/12/22 12:10:03;;;;;;;67.60;41.60;;;;;;;13.18;49.87;94585.44;5006722;28;20677;-42
2022/12/22 12:12:44;;;;;;;60.40;41.10;;;;;;;13.20;50.08;94575.00;5005808;28;20482;-43
2022/12/22 12:15:22;;;;;;;65.53;41.20;;;;;;;13.18;50.03;94566.66;5007259;28;20197;-44
2022/12/22 12:18:04;;;;;;;64.90;42.73;;;;;;;13.21;49.94;94566.34;5007079;28;20668;-43
2022/12/22 12:20:44;;;;;;;70.63;41.93;;;;;;;13.22;49.97;94570.53;5006820;28;20246;-43
2022/12/22 12:23:29;;;;;;;60.97;40.30;;;;;;;13.00;49.93;94530.84;5007056;28;20564;-44
2022/12/22 12:26:07;;;;;;;59.13;39.60;;;;;;;13.25;49.91;94567.66;5006411;28;20260;-43
2022/12/22 12:28:48;;;;;;;68.33;42.50;;;;;;;13.19;49.90;94555.44;5004952;28;20243;-43
2022/12/22 12:31:18;;;;;;;59.33;41.50;;;;;;;13.29;49.84;94566.38;5006675;28;20208;-43
2022/12/22 12:33:49;;;;;;;59.60;41.13;;;;;;;13.35;49.80;94562.41;5006904;28;20223;-42
2022/12/22 12:36:24;;;;;;;57.43;40.47;;;;;;;13.37;49.66;94560.47;5005974;28;20279;-42
2022/12/22 12:38:59;;;;;;;57.40;39.70;;;;;;;13.37;49.55;94558.69;5006595;28;20273;-43
2022/12/22 12:41:32;;;;;;;59.00;38.90;;;;;;;13.38;49.78;94562.88;5003867;28;20269;-42
2022/12/22 12:44:01;;;;;;;63.00;41.83;;;;;;;13.37;49.83;94556.13;5022312;28;20206;-42
2022/12/22 12:46:58;;;;;;;63.20;41.03;;;;;;;13.36;49.69;94553.72;5048705;28;20191;-42
2022/12/22 12:50:00;;;;;;;57.67;39.60;;;;;;;13.34;49.83;94547.94;5048111;28;20193;-42
2022/12/22 12:53:06;;;;;;;60.33;38.73;;;;;;;13.31;49.98;94561.91;5048848;28;20211;-42
2022/12/22 12:55:50;;;;;;;64.83;41.57;;;;;;;13.28;49.97;94559.66;4986486;28;20197;-43
2022/12/22 12:59:01;;;;;;;59.63;40.20;;;;;;;13.25;49.87;94553.06;4986471;28;20208;-42
2022/12/22 13:01:58;;;;;;;59.20;40.53;;;;;;;13.21;50.08;94548.34;4982868;28;20193;-43
2022/12/22 13:05:00;;;;;;;61.40;42.13;;;;;;;13.17;50.05;94549.63;4984819;28;20692;-43
2022/12/22 13:08:19;;;;;;;60.23;40.67;;;;;;;13.11;50.18;94552.84;4985475;28;20824;-42
2022/12/22 13:11:09;;;;;;;57.37;40.97;;;;;;;13.05;50.29;94547.38;4926982;29;20199;-42
2022/12/22 13:13:47;;;;;;;55.43;39.03;;;;;;;12.93;50.32;94534.97;4928458;29;20226;-43
2022/12/22 13:16:35;;;;;;;60.57;41.43;;;;;;;12.99;50.42;94552.31;4928215;29;20205;-43
2022/12/22 13:19:20;;;;;;;61.43;42.27;;;;;;;12.96;50.44;94553.44;4927324;29;20202;-43
2022/12/22 13:21:46;;;;;;;59.53;39.83;;;;;;;12.90;50.48;94540.41;4926225;29;20664;-43
2022/12/22 13:24:19;;;;;;;62.73;42.70;;;;;;;12.85;50.34;94535.75;4928983;29;20743;-44
2022/12/22 13:26:51;;;;;;;63.93;42.20;;;;;;;12.85;50.54;94540.09;4928539;29;20646;-43
2022/12/22 13:29:26;;;;;;;58.87;38.60;;;;;;;12.82;50.62;94541.19;4928874;29;20304;-43
2022/12/22 13:31:57;;;;;;;57.27;41.03;;;;;;;12.79;50.79;94538.94;4973776;28;20200;-44
2022/12/22 13:34:40;;;;;;;63.93;43.00;;;;;;;12.73;50.60;94534.41;4988170;28;20725;-44
2022/12/22 13:37:18;;;;;;;66.70;42.83;;;;;;;12.74;50.79;94544.53;4985820;28;20189;-43
2022/12/22 13:40:09;;;;;;;64.10;40.93;;;;;;;12.72;50.67;94543.88;4985931;28;20189;-43
2022/12/22 13:42:40;;;;;;;62.80;42.03;;;;;;;12.68;50.97;94541.78;5037333;28;20870;-44
2022/12/22 13:45:27;;;;;;;60.63;42.00;;;;;;;12.66;50.77;94533.44;5047589;28;20706;-43
2022/12/22 13:47:54;;;;;;;58.63;40.03;;;;;;;12.62;50.95;94534.72;5047272;28;20202;-43
2022/12/22 13:50:25;;;;;;;60.93;41.50;;;;;;;12.59;51.07;94525.56;5047472;28;20575;-43
2022/12/22 13:52:53;;;;;;;61.80;42.73;;;;;;;12.58;51.03;94525.72;5047508;28;20969;-44
2022/12/22 13:55:25;;;;;;;64.00;40.90;;;;;;;12.54;51.09;94526.00;5047677;28;20198;-43
2022/12/22 13:57:54;;;;;;;62.17;42.43;;;;;;;12.55;51.01;94530.19;5047753;28;20310;-44
2022/12/22 14:00:24;;;;;;;69.17;42.90;;;;;;;12.52;50.92;94527.94;5047666;28;20229;-44
2022/12/22 14:02:50;;;;;;;60.03;42.83;;;;;;;12.50;50.94;94529.03;5045232;28;20203;-43
2022/12/22 14:05:19;;;;;;;62.27;41.23;;;;;;;12.48;51.21;94531.78;5047052;28;20187;-44
2022/12/22 14:07:59;;;;;;;66.80;43.13;;;;;;;12.46;51.22;94525.16;5047803;28;20198;-44
2022/12/22 14:10:31;;;;;;;70.37;44.23;;;;;;;12.44;51.02;94527.91;5047509;28;20182;-42
2022/12/22 14:13:01;;;;;;;66.13;43.27;;;;;;;12.42;51.29;94522.09;5046764;28;20207;-43
2022/12/22 14:15:28;;;;;;;70.43;43.97;;;;;;;12.41;51.23;94519.69;5047110;28;20203;-43
2022/12/22 14:17:55;;;;;;;64.63;42.83;;;;;;;12.37;51.15;94516.63;5047501;28;20198;-43
2022/12/22 14:20:27;;;;;;;64.43;43.43;;;;;;;12.31;51.47;94514.69;5047162;28;20206;-44
2022/12/22 14:22:57;;;;;;;68.03;43.20;;;;;;;12.29;51.43;94519.16;5049426;28;20250;-43
2022/12/22 14:25:29;;;;;;;68.30;43.87;;;;;;;12.23;51.44;94515.44;5050642;28;20636;-44
2022/12/22 14:27:57;;;;;;;73.53;43.80;;;;;;;12.17;51.67;94518.59;5050607;28;20610;-43
2022/12/22 14:30:29;;;;;;;66.00;43.57;;;;;;;12.10;51.67;94520.19;5050033;28;20201;-43
2022/12/22 14:32:56;;;;;;;73.03;44.10;;;;;;;12.03;51.89;94511.47;5054513;28;20210;-44
2022/12/22 14:35:27;;;;;;;62.10;41.90;;;;;;;11.96;51.71;94515.59;5051409;28;20245;-43
2022/12/22 14:37:56;;;;;;;67.07;42.83;;;;;;;11.89;52.07;94522.28;5048958;28;20666;-43
2022/12/22 14:40:31;;;;;;;64.87;42.83;;;;;;;11.35;51.90;94450.59;5050502;28;20625;-43
2022/12/22 14:43:00;;;;;;;62.63;42.93;;;;;;;11.74;52.10;94519.41;5050815;28;20194;-43
2022/12/22 14:45:28;;;;;;;69.13;44.10;;;;;;;11.66;52.36;94522.72;5050046;28;20210;-43
2022/12/22 14:47:56;;;;;;;60.47;40.63;;;;;;;11.59;52.60;94519.16;5050908;28;20199;-43
2022/12/22 14:50:25;;;;;;;69.87;41.30;;;;;;;11.51;52.59;94519.06;5050355;28;20195;-43
2022/12/22 14:52:54;;;;;;;65.77;40.87;;;;;;;11.27;52.68;94504.31;5051119;28;20288;-43
2022/12/22 14:55:25;;;;;;;65.93;41.90;;;;;;;11.36;52.69;94530.81;5050034;28;20194;-44
2022/12/22 14:57:55;;;;;;;63.80;43.47;;;;;;;11.28;52.93;94528.97;5050789;28;20191;-43
2022/12/22 15:00:33;;;;;;;58.23;41.40;;;;;;;11.19;53.12;94529.84;5048153;28;20191;-42
2022/12/22 15:03:02;;;;;;;69.20;42.60;;;;;;;11.09;53.29;94524.78;5049911;28;20260;-43
2022/12/22 15:05:32;;;;;;;64.77;42.07;;;;;;;11.00;53.27;94534.13;5050133;28;20643;-42
2022/12/22 15:07:59;;;;;;;69.67;43.97;;;;;;;10.92;53.37;94530.66;5050241;28;20195;-42
2022/12/22 15:10:28;;;;;;;68.20;41.30;;;;;;;10.84;53.70;94533.13;5050129;28;20199;-42
2022/12/22 15:13:00;;;;;;;70.10;40.87;;;;;;;10.74;53.82;94531.44;5049788;28;20225;-43
2022/12/22 15:15:27;;;;;;;64.47;41.60;;;;;;;10.67;54.00;94530.41;5048112;28;20397;-43
2022/12/22 15:17:55;;;;;;;76.60;42.53;;;;;;;10.59;54.10;94526.94;5050306;28;20195;-43
2022/12/22 15:20:24;;;;;;;64.13;41.00;;;;;;;10.51;54.17;94532.75;5049458;28;20198;-42